createdAt,value
2022-10-01T00:00:00.026Z,5.53
2022-10-01T00:02:27.468Z,5.87
2022-10-01T00:04:54.955Z,5.30
2022-10-01T00:07:34.601Z,5.53
2022-10-01T00:10:02.023Z,5.17
2022-10-01T00:12:29.457Z,5.83
2022-10-01T00:15:06.121Z,5.67
2022-10-01T00:17:34.796Z,5.57
2022-10-01T00:20:10.542Z,5.70
2022-10-01T00:22:47.597Z,5.70
2022-10-01T00:25:15.051Z,5.33
2022-10-01T00:27:46.400Z,5.63
2022-10-01T00:30:23.099Z,4.30
2022-10-01T00:32:54.810Z,4.67
2022-10-01T00:35:30.052Z,4.40
2022-10-01T00:38:01.489Z,4.77
2022-10-01T00:40:28.897Z,4.53
2022-10-01T00:43:02.560Z,3.97
2022-10-01T00:45:30.357Z,4.07
2022-10-01T00:48:01.223Z,3.80
2022-10-01T00:50:42.669Z,3.60
2022-10-01T00:53:16.622Z,3.73
2022-10-01T00:56:01.491Z,3.67
2022-10-01T00:58:49.502Z,3.90
2022-10-01T01:01:23.593Z,3.60
2022-10-01T01:03:52.772Z,4.17
2022-10-01T01:06:20.517Z,3.77
2022-10-01T01:08:54.534Z,3.63
2022-10-01T01:11:40.511Z,3.87
2022-10-01T01:14:25.347Z,3.60
2022-10-01T01:17:02.674Z,3.67
2022-10-01T01:19:59.549Z,3.60
2022-10-01T01:22:44.320Z,3.50
2022-10-01T01:25:27.270Z,3.17
2022-10-01T01:28:20.021Z,3.47
2022-10-01T01:30:58.318Z,3.23
2022-10-01T01:33:28.139Z,3.40
2022-10-01T01:36:13.441Z,3.13
2022-10-01T01:38:52.073Z,3.43
2022-10-01T01:41:31.600Z,3.33
2022-10-01T01:44:06.928Z,3.40
2022-10-01T01:46:44.488Z,3.03
2022-10-01T01:49:14.326Z,3.53
2022-10-01T01:51:53.432Z,3.57
2022-10-01T01:54:21.404Z,3.27
2022-10-01T01:56:50.418Z,3.37
2022-10-01T01:59:26.529Z,3.33
2022-10-01T02:01:54.137Z,3.30
2022-10-01T02:04:24.102Z,3.43
2022-10-01T02:07:31.094Z,3.77
2022-10-01T02:10:07.154Z,2.97
2022-10-01T02:13:08.102Z,3.43
2022-10-01T02:15:55.398Z,2.87
2022-10-01T02:18:50.070Z,3.00
2022-10-01T02:21:23.199Z,3.10
2022-10-01T02:24:32.094Z,3.10
2022-10-01T02:27:03.773Z,3.13
2022-10-01T02:29:31.744Z,3.00
2022-10-01T02:32:07.076Z,2.70
2022-10-01T02:34:34.916Z,3.13
2022-10-01T02:37:08.046Z,3.13
2022-10-01T02:39:45.130Z,2.77
2022-10-01T02:42:14.693Z,3.10
2022-10-01T02:44:45.043Z,2.80
2022-10-01T02:47:31.969Z,2.67
2022-10-01T02:50:00.118Z,2.80
2022-10-01T02:52:40.995Z,2.60
2022-10-01T02:55:16.959Z,2.47
2022-10-01T02:57:51.774Z,2.50
2022-10-01T03:00:27.226Z,2.53
2022-10-01T03:03:01.853Z,2.37
2022-10-01T03:05:29.321Z,2.33
2022-10-01T03:07:56.776Z,3.00
2022-10-01T03:10:32.586Z,2.40
2022-10-01T03:13:01.741Z,2.97
2022-10-01T03:15:29.293Z,2.80
2022-10-01T03:18:03.590Z,2.80
2022-10-01T03:20:31.053Z,2.70
2022-10-01T03:22:58.485Z,2.80
2022-10-01T03:25:32.655Z,2.47
2022-10-01T03:28:00.558Z,2.30
2022-10-01T03:30:28.484Z,2.27
2022-10-01T03:33:04.367Z,2.30
2022-10-01T03:35:32.306Z,2.00
2022-10-01T03:37:59.767Z,2.07
2022-10-01T03:40:40.394Z,1.73
2022-10-01T03:43:07.825Z,2.10
2022-10-01T03:45:36.460Z,2.03
2022-10-01T03:48:10.426Z,1.83
2022-10-01T03:50:41.867Z,1.70
2022-10-01T03:53:20.808Z,1.50
2022-10-01T03:55:57.499Z,1.60
2022-10-01T03:58:32.477Z,1.70
2022-10-01T04:01:08.596Z,1.60
2022-10-01T04:03:45.861Z,1.70
2022-10-01T04:06:14.432Z,1.73
2022-10-01T04:08:43.099Z,1.60
2022-10-01T04:11:19.481Z,1.40
2022-10-01T04:13:47.567Z,1.50
2022-10-01T04:16:16.126Z,1.47
2022-10-01T04:18:50.452Z,1.67
2022-10-01T04:21:17.996Z,1.60
2022-10-01T04:23:46.084Z,1.53
2022-10-01T04:26:25.735Z,1.57
2022-10-01T04:28:54.784Z,1.63
2022-10-01T04:31:24.979Z,1.53
2022-10-01T04:34:03.852Z,1.30
2022-10-01T04:36:31.385Z,1.60
2022-10-01T04:39:02.209Z,1.30
2022-10-01T04:41:39.172Z,1.40
2022-10-01T04:44:07.855Z,1.40
2022-10-01T04:46:35.273Z,1.40
2022-10-01T04:49:09.785Z,1.60
2022-10-01T04:51:37.342Z,1.30
2022-10-01T04:54:06.862Z,1.40
2022-10-01T04:56:41.754Z,1.20
2022-10-01T04:59:29.717Z,1.20
2022-10-01T05:02:05.685Z,1.30
2022-10-01T05:04:33.139Z,1.40
2022-10-01T05:07:00.530Z,1.20
2022-10-01T05:09:34.763Z,1.17
2022-10-01T05:12:02.518Z,1.20
2022-10-01T05:14:30.216Z,1.40
2022-10-01T05:17:04.855Z,1.27
2022-10-01T05:19:32.282Z,1.40
2022-10-01T05:21:59.858Z,1.67
2022-10-01T05:24:34.035Z,1.40
2022-10-01T05:27:01.539Z,1.30
2022-10-01T05:29:29.110Z,1.40
2022-10-01T05:32:04.785Z,1.10
2022-10-01T05:34:34.929Z,1.33
2022-10-01T05:37:03.112Z,1.50
2022-10-01T05:39:37.736Z,1.43
2022-10-01T05:42:06.642Z,1.43
2022-10-01T05:44:54.894Z,1.33
2022-10-01T05:47:23.057Z,1.67
2022-10-01T05:49:51.129Z,1.57
2022-10-01T05:55:33.777Z,1.33
2022-10-01T06:08:09.809Z,1.33
2022-10-01T06:10:38.795Z,1.43
2022-10-01T06:13:07.021Z,1.63
2022-10-01T06:15:45.939Z,1.50
2022-10-01T06:18:14.802Z,1.50
2022-10-01T06:20:42.267Z,1.30
2022-10-01T06:23:20.781Z,1.27
2022-10-01T06:26:07.127Z,1.30
2022-10-01T06:28:41.754Z,1.30
2022-10-01T06:31:09.470Z,1.40
2022-10-01T06:33:37.324Z,1.57
2022-10-01T06:36:11.788Z,1.83
2022-10-01T06:38:39.329Z,1.57
2022-10-01T06:41:06.809Z,1.50
2022-10-01T06:43:40.758Z,1.70
2022-10-01T06:46:08.174Z,1.80
2022-10-01T06:49:03.813Z,1.57
2022-10-01T06:51:50.496Z,1.63
2022-10-01T06:54:24.739Z,1.37
2022-10-01T06:56:52.179Z,1.33
2022-10-01T06:59:19.632Z,1.37
2022-10-01T07:01:56.792Z,1.10
2022-10-01T07:04:24.473Z,1.20
2022-10-01T07:07:14.610Z,1.40
2022-10-01T07:09:41.975Z,1.13
2022-10-01T07:12:09.672Z,1.13
2022-10-01T07:14:44.248Z,1.20
2022-10-01T07:17:11.606Z,1.20
2022-10-01T07:19:39.090Z,1.30
2022-10-01T07:22:13.281Z,1.47
2022-10-01T07:24:41.062Z,1.30
2022-10-01T07:27:08.497Z,1.23
2022-10-01T07:29:42.285Z,1.60
2022-10-01T07:32:10.573Z,1.37
2022-10-01T07:34:51.507Z,1.20
2022-10-01T07:37:19.207Z,1.60
2022-10-01T07:39:46.531Z,1.30
2022-10-01T07:42:20.527Z,1.30
2022-10-01T07:44:48.021Z,1.20
2022-10-01T07:47:15.494Z,1.03
2022-10-01T07:49:49.561Z,1.30
2022-10-01T07:52:17.533Z,1.00
2022-10-01T07:54:48.616Z,1.17
2022-10-01T07:57:23.543Z,1.20
2022-10-01T07:59:55.555Z,1.03
2022-10-01T08:02:23.513Z,1.30
2022-10-01T08:05:16.454Z,1.03
2022-10-01T08:07:50.714Z,1.07
2022-10-01T08:10:26.511Z,1.50
2022-10-01T08:13:08.191Z,1.10
2022-10-01T08:15:42.517Z,1.10
2022-10-01T08:18:11.909Z,0.90
2022-10-01T08:20:44.565Z,1.10
2022-10-01T08:23:20.992Z,1.00
2022-10-01T08:25:48.575Z,0.90
2022-10-01T08:28:18.370Z,0.80
2022-10-01T08:30:52.297Z,0.90
2022-10-01T08:33:19.722Z,0.80
2022-10-01T08:35:47.122Z,0.80
2022-10-01T08:38:21.095Z,0.80
2022-10-01T08:40:50.994Z,0.70
2022-10-01T08:43:39.217Z,1.00
2022-10-01T08:46:19.581Z,0.80
2022-10-01T08:49:18.098Z,0.70
2022-10-01T08:52:10.939Z,0.90
2022-10-01T08:54:50.122Z,0.60
2022-10-01T08:57:22.039Z,0.80
2022-10-01T09:00:06.170Z,0.87
2022-10-01T09:02:39.730Z,0.97
2022-10-01T09:05:49.401Z,1.00
2022-10-01T09:08:48.345Z,0.73
2022-10-01T09:11:59.317Z,0.50
2022-10-01T09:14:47.354Z,0.80
2022-10-01T09:17:45.266Z,0.80
2022-10-01T09:20:27.644Z,0.60
2022-10-01T09:23:24.269Z,0.70
2022-10-01T09:25:52.111Z,0.37
2022-10-01T09:28:44.641Z,0.60
2022-10-01T09:31:18.869Z,0.70
2022-10-01T09:34:02.189Z,0.40
2022-10-01T09:37:08.420Z,0.60
2022-10-01T09:39:54.946Z,0.40
2022-10-01T09:42:29.475Z,0.40
2022-10-01T09:45:06.429Z,0.70
2022-10-01T09:47:34.606Z,0.50
2022-10-01T09:50:13.436Z,0.37
2022-10-01T09:52:42.022Z,0.50
2022-10-01T09:55:42.663Z,0.50
2022-10-01T09:58:14.428Z,0.33
2022-10-01T10:00:49.898Z,0.33
2022-10-01T10:03:32.110Z,0.90
2022-10-01T10:06:08.856Z,0.30
2022-10-01T10:08:52.956Z,0.27
2022-10-01T10:11:35.325Z,0.37
2022-10-01T10:14:07.187Z,0.17
2022-10-01T10:16:43.911Z,0.50
2022-10-01T10:19:31.204Z,0.27
2022-10-01T10:22:18.972Z,0.30
2022-10-01T10:24:52.864Z,0.30
2022-10-01T10:27:29.116Z,1.20
2022-10-01T10:30:17.219Z,0.30
2022-10-01T10:32:55.183Z,0.20
2022-10-01T10:35:26.596Z,0.20
2022-10-01T10:38:04.129Z,0.20
2022-10-01T10:40:43.242Z,0.63
2022-10-01T10:43:32.056Z,0.30
2022-10-01T10:46:03.692Z,0.20
2022-10-01T10:48:47.044Z,0.35
2022-10-01T10:51:14.627Z,0.30
2022-10-01T10:53:46.460Z,0.40
2022-10-01T10:56:31.078Z,0.30
2022-10-01T10:59:10.465Z,0.30
2022-10-01T11:01:49.189Z,0.30
2022-10-01T11:04:44.485Z,0.30
2022-10-01T11:07:31.447Z,0.30
2022-10-01T11:10:30.444Z,0.40
2022-10-01T11:13:30.563Z,0.38
2022-10-01T11:16:24.551Z,0.20
2022-10-01T11:19:10.202Z,0.30
2022-10-01T11:22:21.980Z,0.30
2022-10-01T11:25:23.279Z,0.40
2022-10-01T11:28:23.623Z,0.30
2022-10-01T11:31:01.392Z,0.25
2022-10-01T11:34:02.756Z,0.55
2022-10-01T11:36:44.210Z,0.30
2022-10-01T11:39:18.661Z,0.57
2022-10-01T11:42:18.230Z,1.20
2022-10-01T11:45:03.781Z,4.70
2022-10-01T11:47:53.837Z,2.55
2022-10-01T11:50:36.138Z,0.60
2022-10-01T11:53:37.794Z,0.40
2022-10-01T11:56:31.143Z,0.50
2022-10-01T11:59:11.716Z,0.30
2022-10-01T12:01:46.978Z,0.25
2022-10-01T12:04:53.049Z,0.40
2022-10-01T12:07:38.447Z,0.70
2022-10-01T12:10:46.292Z,0.43
2022-10-01T12:13:26.351Z,0.30
2022-10-01T12:16:17.189Z,0.60
2022-10-01T12:19:11.261Z,0.60
2022-10-01T12:21:49.029Z,0.60
2022-10-01T12:24:34.172Z,0.40
2022-10-01T12:27:34.058Z,0.68
2022-10-01T12:30:25.083Z,0.40
2022-10-01T12:33:02.221Z,0.30
2022-10-01T12:35:47.753Z,0.30
2022-10-01T12:38:27.217Z,0.50
2022-10-01T12:41:10.133Z,0.40
2022-10-01T12:43:59.190Z,0.40
2022-10-01T12:46:47.600Z,0.40
2022-10-01T12:49:29.239Z,0.30
2022-10-01T12:52:23.251Z,0.65
2022-10-01T12:55:22.805Z,0.40
2022-10-01T12:58:18.741Z,0.57
2022-10-01T13:01:10.556Z,0.52
2022-10-01T13:03:43.856Z,0.60
2022-10-01T13:06:58.539Z,0.50
2022-10-01T13:09:53.878Z,2.08
2022-10-01T13:12:52.497Z,0.50
2022-10-01T13:15:47.881Z,0.73
2022-10-01T13:18:53.480Z,0.88
2022-10-01T13:21:37.143Z,0.90
2022-10-01T13:24:29.465Z,0.65
2022-10-01T13:27:04.496Z,1.05
2022-10-01T13:29:41.608Z,0.60
2022-10-01T13:32:51.598Z,0.75
2022-10-01T13:35:36.105Z,0.52
2022-10-01T13:38:44.309Z,0.45
2022-10-01T13:41:40.563Z,0.52
2022-10-01T13:44:17.210Z,0.63
2022-10-01T13:47:16.302Z,0.80
2022-10-01T13:50:00.756Z,1.08
2022-10-01T13:52:35.524Z,0.52
2022-10-01T13:55:03.762Z,1.13
2022-10-01T13:57:43.724Z,0.40
2022-10-01T14:00:17.541Z,2.75
2022-10-01T14:03:10.591Z,0.75
2022-10-01T14:05:42.491Z,1.30
2022-10-01T14:08:48.568Z,1.85
2022-10-01T14:11:44.362Z,1.35
2022-10-01T14:14:45.476Z,1.20
2022-10-01T14:17:14.415Z,2.47
2022-10-01T14:19:57.477Z,0.40
2022-10-01T14:22:39.566Z,1.75
2022-10-01T14:25:13.472Z,1.27
2022-10-01T14:28:12.826Z,0.60
2022-10-01T14:31:09.603Z,0.90
2022-10-01T14:34:07.672Z,1.00
2022-10-01T14:36:49.481Z,0.73
2022-10-01T14:39:27.124Z,0.40
2022-10-01T14:42:02.445Z,0.57
2022-10-01T14:44:36.949Z,0.70
2022-10-01T14:47:23.534Z,0.50
2022-10-01T14:49:52.093Z,0.98
2022-10-01T14:52:30.514Z,3.13
2022-10-01T14:55:08.591Z,0.93
2022-10-01T14:57:46.501Z,0.77
2022-10-01T15:00:32.250Z,0.68
2022-10-01T15:03:15.858Z,0.90
2022-10-01T15:05:49.276Z,0.50
2022-10-01T15:08:43.452Z,0.70
2022-10-01T15:11:33.527Z,0.60
2022-10-01T15:14:14.449Z,0.50
2022-10-01T15:16:41.913Z,0.82
2022-10-01T15:19:30.448Z,0.80
2022-10-01T15:22:00.790Z,0.55
2022-10-01T15:24:53.469Z,0.50
2022-10-01T15:27:24.789Z,0.40
2022-10-01T15:30:03.016Z,0.90
2022-10-01T15:32:30.563Z,0.70
2022-10-01T15:35:12.406Z,0.85
2022-10-01T15:37:44.791Z,0.50
2022-10-01T15:40:44.444Z,0.60
2022-10-01T15:43:27.650Z,1.70
2022-10-01T15:46:25.506Z,0.80
2022-10-01T15:49:13.063Z,1.17
2022-10-01T15:52:22.484Z,0.70
2022-10-01T15:54:59.542Z,0.45
2022-10-01T15:57:35.481Z,0.43
2022-10-01T16:00:03.067Z,0.60
2022-10-01T16:02:32.326Z,0.68
2022-10-01T16:05:12.677Z,1.10
2022-10-01T16:08:08.473Z,0.43
2022-10-01T16:10:50.222Z,0.55
2022-10-01T16:13:39.257Z,0.50
2022-10-01T16:16:34.738Z,1.38
2022-10-01T16:19:29.254Z,3.20
2022-10-01T16:22:33.520Z,0.85
2022-10-01T16:25:24.956Z,0.90
2022-10-01T16:28:10.488Z,0.77
2022-10-01T16:30:37.976Z,0.82
2022-10-01T16:33:06.242Z,3.58
2022-10-01T16:35:46.490Z,3.80
2022-10-01T16:38:13.975Z,4.10
2022-10-01T16:40:44.064Z,1.17
2022-10-01T16:43:27.478Z,1.10
2022-10-01T16:45:59.094Z,0.75
2022-10-01T16:48:26.680Z,0.70
2022-10-01T16:51:06.782Z,0.70
2022-10-01T16:53:34.223Z,0.90
2022-10-01T16:56:02.192Z,0.80
2022-10-01T16:58:36.526Z,1.42
2022-10-01T17:01:07.784Z,0.57
2022-10-01T17:03:44.813Z,0.68
2022-10-01T17:06:12.285Z,1.48
2022-10-01T17:08:53.811Z,0.95
2022-10-01T17:11:24.266Z,0.90
2022-10-01T17:13:52.321Z,1.10
2022-10-01T17:16:27.385Z,1.17
2022-10-01T17:18:56.514Z,1.15
2022-10-01T17:21:24.014Z,1.13
2022-10-01T17:23:58.381Z,1.10
2022-10-01T17:26:26.073Z,1.10
2022-10-01T17:28:58.111Z,1.15
2022-10-01T17:31:34.619Z,1.00
2022-10-01T17:34:03.335Z,1.10
2022-10-01T17:36:31.560Z,1.17
2022-10-01T17:39:05.398Z,1.25
2022-10-01T17:41:32.849Z,1.10
2022-10-01T17:44:00.365Z,1.10
2022-10-01T17:46:38.337Z,1.00
2022-10-01T17:49:08.853Z,1.20
2022-10-01T17:51:36.916Z,1.02
2022-10-01T17:54:11.746Z,0.90
2022-10-01T17:56:39.382Z,1.02
2022-10-01T17:59:07.067Z,1.30
2022-10-01T18:01:40.730Z,1.08
2022-10-01T18:04:11.623Z,1.20
2022-10-01T18:06:40.336Z,1.30
2022-10-01T18:09:14.742Z,1.13
2022-10-01T18:11:43.889Z,0.82
2022-10-01T18:14:11.240Z,1.20
2022-10-01T18:16:45.974Z,0.98
2022-10-01T18:19:52.966Z,1.52
2022-10-01T18:22:13.964Z,1.17
2022-10-01T18:24:42.786Z,1.55
2022-10-01T18:27:16.953Z,1.27
2022-10-01T18:29:44.464Z,1.00
2022-10-01T18:32:32.945Z,1.30
2022-10-01T18:35:05.917Z,1.45
2022-10-01T18:38:09.998Z,1.55
2022-10-01T18:40:43.177Z,1.30
2022-10-01T18:43:28.157Z,2.22
2022-10-01T18:46:12.667Z,1.70
2022-10-01T18:49:03.252Z,3.75
2022-10-01T18:51:52.798Z,1.52
2022-10-01T18:54:46.154Z,1.60
2022-10-01T18:57:29.662Z,1.75
2022-10-01T19:00:27.013Z,2.80
2022-10-01T19:03:16.586Z,3.50
2022-10-01T19:05:53.667Z,3.30
2022-10-01T19:08:48.405Z,2.20
2022-10-01T19:11:31.593Z,2.05
2022-10-01T19:14:34.059Z,2.08
2022-10-01T19:17:45.254Z,1.70
2022-10-01T19:20:19.987Z,1.73
2022-10-01T19:23:07.438Z,2.30
2022-10-01T19:25:51.359Z,1.60
2022-10-01T19:28:43.368Z,2.65
2022-10-01T19:31:54.231Z,7.28
2022-10-01T19:34:41.460Z,10.48
2022-10-01T19:37:28.194Z,2.72
2022-10-01T19:40:26.560Z,3.47
2022-10-01T19:43:20.350Z,1.67
2022-10-01T19:46:27.274Z,4.03
2022-10-01T19:49:09.811Z,3.55
2022-10-01T19:51:49.148Z,3.42
2022-10-01T19:54:20.112Z,2.78
2022-10-01T19:56:59.192Z,2.35
2022-10-01T19:59:31.214Z,1.88
2022-10-01T20:02:11.316Z,2.65
2022-10-01T20:04:47.948Z,2.28
2022-10-01T20:07:34.275Z,3.72
2022-10-01T20:10:24.244Z,2.22
2022-10-01T20:13:16.348Z,1.98
2022-10-01T20:16:12.651Z,1.90
2022-10-01T20:19:11.249Z,2.67
2022-10-01T20:22:12.040Z,2.10
2022-10-01T20:25:00.275Z,2.25
2022-10-01T20:27:55.020Z,2.55
2022-10-01T20:30:40.303Z,3.05
2022-10-01T20:33:20.232Z,2.28
2022-10-01T20:36:16.100Z,2.97
2022-10-01T20:39:04.449Z,2.30
2022-10-01T20:42:01.754Z,1.95
2022-10-01T20:44:35.751Z,2.58
2022-10-01T20:47:27.572Z,2.33
2022-10-01T20:50:34.160Z,2.40
2022-10-01T20:53:21.599Z,2.33
2022-10-01T20:56:02.027Z,2.67
2022-10-01T20:59:00.607Z,2.60
2022-10-01T21:01:42.367Z,2.78
2022-10-01T21:04:34.643Z,2.45
2022-10-01T21:07:58.122Z,2.38
2022-10-01T21:10:57.758Z,2.35
2022-10-01T21:13:31.202Z,2.90
2022-10-01T21:16:12.493Z,2.70
2022-10-01T21:18:57.479Z,2.67
2022-10-01T21:21:59.933Z,2.80
2022-10-01T21:24:33.187Z,2.60
2022-10-01T21:27:33.886Z,2.97
2022-10-01T21:30:21.679Z,3.00
2022-10-01T21:33:12.332Z,2.67
2022-10-01T21:35:49.426Z,3.13
2022-10-01T21:38:36.360Z,2.78
2022-10-01T21:41:16.893Z,3.17
2022-10-01T21:44:10.704Z,3.40
2022-10-01T21:46:58.154Z,3.20
2022-10-01T21:49:58.225Z,3.72
2022-10-01T21:52:53.821Z,2.85
2022-10-01T21:56:21.191Z,2.28
2022-10-01T21:59:06.253Z,2.00
2022-10-01T22:01:48.383Z,2.95
2022-10-01T22:04:40.327Z,3.25
2022-10-01T22:07:44.667Z,2.58
2022-10-01T22:10:34.960Z,2.83
2022-10-01T22:13:12.748Z,2.15
2022-10-01T22:15:44.418Z,2.35
2022-10-01T22:18:49.696Z,2.25
2022-10-01T22:21:45.748Z,2.00
2022-10-01T22:24:31.730Z,2.42
2022-10-01T22:27:08.783Z,2.60
2022-10-01T22:29:50.739Z,2.05
2022-10-01T22:32:29.461Z,2.03
2022-10-01T22:35:13.053Z,2.40
2022-10-01T22:38:02.091Z,2.30
2022-10-01T22:40:47.444Z,3.20
2022-10-01T22:43:15.524Z,2.85
2022-10-01T22:46:18.422Z,3.50
2022-10-01T22:49:13.206Z,3.47
2022-10-01T22:51:53.493Z,2.53
2022-10-01T22:54:42.740Z,3.33
2022-10-01T22:58:09.749Z,2.20
2022-10-01T23:01:00.672Z,2.40
2022-10-01T23:03:54.885Z,3.20
2022-10-01T23:06:34.877Z,2.80
2022-10-01T23:09:35.969Z,2.30
2022-10-01T23:12:38.869Z,2.55
2022-10-01T23:15:25.887Z,2.45
2022-10-01T23:18:15.880Z,3.33
2022-10-01T23:21:29.924Z,3.05
2022-10-01T23:24:09.083Z,3.45
2022-10-01T23:26:53.071Z,5.88
2022-10-01T23:29:32.609Z,4.57
2022-10-01T23:32:17.917Z,12.20
2022-10-01T23:35:00.905Z,2.70
2022-10-01T23:38:00.100Z,8.95
2022-10-01T23:40:39.525Z,8.35
2022-10-01T23:43:33.662Z,16.52
2022-10-01T23:46:07.436Z,28.58
2022-10-01T23:49:08.621Z,19.90
2022-10-01T23:52:02.085Z,32.25
2022-10-01T23:54:57.884Z,11.00
2022-10-01T23:57:32.101Z,6.28
